Hsc Superjet — IINO — position and weather

sailwx.info

Track history (hours):
 
Tides and Currents Weather Stations Pressure Air Temp Water Temp Dewpoint Dewpoint Depression Visibility Wind Speed Wind Dir Waves Ship Positions

Hsc Superjet

Last reported at 2014-Oct-18 10:18 UTC. Time now 2014-Oct-26 03:47 UTC.
Position N 40°38' E 014°16'.

Length 44 m; draft 1.4 m.

Type: High speed craft. MMSI: 247540000.

Date/timePositionNaut miles runAvg speedWind from/ knotsBaromVisibWave heightAir tempDewpointWater temp
2014-Oct-18 10:18N 40°38' E 014°16'  
2014-Oct-13 16:17N 40°50' E 014°16'1413.8
2014-Oct-13 15:17N 40°36' E 014°15'3 3.5
2014-Oct-13 14:26N 40°33' E 014°14'1718.1
2014-Oct-13 13:31N 40°50' E 014°15'1 0.5
2014-Oct-13 12:31N 40°50' E 014°16'0 0.2
2014-Oct-13 09:21N 40°50' E 014°15'17 0.8
2014-Oct-12 11:28N 40°34' E 014°14'17 0.8
2014-Oct-11 15:30N 40°50' E 014°15'0 0.0
2014-Oct-11 00:33N 40°50' E 014°16'0 0.0
2014-Oct-10 23:29N 40°50' E 014°16'0 0.0
2014-Oct-10 22:33N 40°50' E 014°16'0 0.0
2014-Oct-10 20:22N 40°50' E 014°16'0 0.0
2014-Oct-10 19:33N 40°50' E 014°16'0 0.0
2014-Oct-10 18:31N 40°50' E 014°16'0 0.0
2014-Oct-10 17:29N 40°50' E 014°16'0 0.0
2014-Oct-10 16:33N 40°50' E 014°16'0 0.3
2014-Oct-10 15:34N 40°50' E 014°15'10 1.9
2014-Oct-10 10:13N 40°40' E 014°17'10 0.8
2014-Oct-09 21:31N 40°50' E 014°16'0 0.0
2014-Oct-09 17:09N 40°50' E 014°16'0 0.0
2014-Oct-09 16:33N 40°50' E 014°16'0 0.2
2014-Oct-09 15:30N 40°50' E 014°16'0 0.0
2014-Oct-08 15:16N 40°50' E 014°16'0 0.0
2014-Oct-08 14:33N 40°50' E 014°16'  
Track history (hours):
 
Tides and Currents Weather Stations Pressure Air Temp Water Temp Dewpoint Dewpoint Depression Visibility Wind Speed Wind Dir Waves Ship Positions

Hsc Superjet

Last reported at 2014-Oct-18 10:18 UTC. Time now 2014-Oct-26 03:47 UTC.
Position N 40°38' E 014°16'.

Length 44 m; draft 1.4 m.

Type: High speed craft. MMSI: 247540000.

Date/timePositionNaut miles runAvg speedWind from/ knotsBaromVisibWave heightAir tempDewpointWater temp
2014-Oct-18 10:18N 40°38' E 014°16'  
2014-Oct-13 16:17N 40°50' E 014°16'1413.8
2014-Oct-13 15:17N 40°36' E 014°15'3 3.5
2014-Oct-13 14:26N 40°33' E 014°14'1718.1
2014-Oct-13 13:31N 40°50' E 014°15'1 0.5
2014-Oct-13 12:31N 40°50' E 014°16'0 0.2
2014-Oct-13 09:21N 40°50' E 014°15'17 0.8
2014-Oct-12 11:28N 40°34' E 014°14'17 0.8
2014-Oct-11 15:30N 40°50' E 014°15'0 0.0
2014-Oct-11 00:33N 40°50' E 014°16'0 0.0
2014-Oct-10 23:29N 40°50' E 014°16'0 0.0
2014-Oct-10 22:33N 40°50' E 014°16'0 0.0
2014-Oct-10 20:22N 40°50' E 014°16'0 0.0
2014-Oct-10 19:33N 40°50' E 014°16'0 0.0
2014-Oct-10 18:31N 40°50' E 014°16'0 0.0
2014-Oct-10 17:29N 40°50' E 014°16'0 0.0
2014-Oct-10 16:33N 40°50' E 014°16'0 0.3
2014-Oct-10 15:34N 40°50' E 014°15'10 1.9
2014-Oct-10 10:13N 40°40' E 014°17'10 0.8
2014-Oct-09 21:31N 40°50' E 014°16'0 0.0
2014-Oct-09 17:09N 40°50' E 014°16'0 0.0
2014-Oct-09 16:33N 40°50' E 014°16'0 0.2
2014-Oct-09 15:30N 40°50' E 014°16'0 0.0
2014-Oct-08 15:16N 40°50' E 014°16'0 0.0
2014-Oct-08 14:33N 40°50' E 014°16'  

Dump ship's entire track history